sensor_id;sensor_type;location;lat;lon;timestamp;P1;P2;P0
55304;PMS7003;65692;51.378;19.824;2023-07-13T00:00:22;20.00;16.75;13.00
55304;PMS7003;65692;51.378;19.824;2023-07-13T00:02:49;20.50;18.50;14.25
55304;PMS7003;65692;51.378;19.824;2023-07-13T00:05:15;21.00;19.50;16.00
55304;PMS7003;65692;51.378;19.824;2023-07-13T00:07:42;18.00;18.00;14.25
55304;PMS7003;65692;51.378;19.824;2023-07-13T00:10:09;20.75;19.75;15.50
55304;PMS7003;65692;51.378;19.824;2023-07-13T00:12:36;22.00;20.75;14.75
55304;PMS7003;65692;51.378;19.824;2023-07-13T00:15:05;21.75;19.00;15.75
55304;PMS7003;65692;51.378;19.824;2023-07-13T00:17:32;22.75;22.75;18.75
55304;PMS7003;65692;51.378;19.824;2023-07-13T00:19:58;26.75;21.25;17.00
55304;PMS7003;65692;51.378;19.824;2023-07-13T00:22:25;22.75;19.00;14.00
55304;PMS7003;65692;51.378;19.824;2023-07-13T00:24:53;21.75;17.75;14.50
55304;PMS7003;65692;51.378;19.824;2023-07-13T00:27:22;21.75;20.75;15.25
55304;PMS7003;65692;51.378;19.824;2023-07-13T00:29:48;20.00;19.25;14.75
55304;PMS7003;65692;51.378;19.824;2023-07-13T00:32:15;15.75;14.75;10.00
55304;PMS7003;65692;51.378;19.824;2023-07-13T00:34:41;24.25;20.00;15.75
55304;PMS7003;65692;51.378;19.824;2023-07-13T00:37:08;25.75;18.50;13.75
55304;PMS7003;65692;51.378;19.824;2023-07-13T00:39:35;17.50;16.00;12.25
55304;PMS7003;65692;51.378;19.824;2023-07-13T00:42:02;23.50;20.25;15.50
55304;PMS7003;65692;51.378;19.824;2023-07-13T00:44:29;28.75;22.00;17.25
55304;PMS7003;65692;51.378;19.824;2023-07-13T00:46:55;22.00;21.00;15.00
55304;PMS7003;65692;51.378;19.824;2023-07-13T00:49:24;21.50;18.00;14.00
55304;PMS7003;65692;51.378;19.824;2023-07-13T00:51:53;23.00;20.00;14.50
55304;PMS7003;65692;51.378;19.824;2023-07-13T00:54:22;27.50;23.00;16.75
55304;PMS7003;65692;51.378;19.824;2023-07-13T00:56:52;24.25;20.00;15.75
55304;PMS7003;65692;51.378;19.824;2023-07-13T00:59:19;18.50;18.25;15.50
55304;PMS7003;65692;51.378;19.824;2023-07-13T01:01:47;22.75;21.50;17.75
55304;PMS7003;65692;51.378;19.824;2023-07-13T01:04:14;18.25;16.00;13.25
55304;PMS7003;65692;51.378;19.824;2023-07-13T01:06:41;16.50;15.25;13.00
55304;PMS7003;65692;51.378;19.824;2023-07-13T01:09:10;13.00;11.75;9.75
55304;PMS7003;65692;51.378;19.824;2023-07-13T01:11:37;14.25;13.00;10.75
55304;PMS7003;65692;51.378;19.824;2023-07-13T01:14:04;15.25;14.25;11.00
55304;PMS7003;65692;51.378;19.824;2023-07-13T01:16:31;17.25;15.75;13.50
55304;PMS7003;65692;51.378;19.824;2023-07-13T01:18:58;20.00;18.75;15.00
55304;PMS7003;65692;51.378;19.824;2023-07-13T01:21:27;20.50;19.25;13.75
55304;PMS7003;65692;51.378;19.824;2023-07-13T01:23:54;17.00;16.75;12.75
55304;PMS7003;65692;51.378;19.824;2023-07-13T01:26:21;22.50;22.50;17.75
55304;PMS7003;65692;51.378;19.824;2023-07-13T01:28:47;15.00;15.00;13.50
55304;PMS7003;65692;51.378;19.824;2023-07-13T01:31:14;18.25;18.00;14.00
55304;PMS7003;65692;51.378;19.824;2023-07-13T01:33:40;23.00;20.00;16.00
55304;PMS7003;65692;51.378;19.824;2023-07-13T01:36:07;20.50;17.00;14.25
55304;PMS7003;65692;51.378;19.824;2023-07-13T01:38:35;20.75;18.50;14.00
55304;PMS7003;65692;51.378;19.824;2023-07-13T01:41:02;18.25;15.25;12.25
55304;PMS7003;65692;51.378;19.824;2023-07-13T01:43:29;15.50;14.25;10.00
55304;PMS7003;65692;51.378;19.824;2023-07-13T01:45:55;21.25;19.00;15.25
55304;PMS7003;65692;51.378;19.824;2023-07-13T01:48:42;18.75;16.75;13.25
55304;PMS7003;65692;51.378;19.824;2023-07-13T01:51:08;21.25;17.25;12.50
55304;PMS7003;65692;51.378;19.824;2023-07-13T01:53:34;16.75;15.25;14.00
55304;PMS7003;65692;51.378;19.824;2023-07-13T01:56:01;16.50;16.50;13.75
55304;PMS7003;65692;51.378;19.824;2023-07-13T01:58:27;20.00;18.50;14.75
55304;PMS7003;65692;51.378;19.824;2023-07-13T02:00:54;21.00;21.00;14.25
55304;PMS7003;65692;51.378;19.824;2023-07-13T02:03:20;17.25;15.25;12.75
55304;PMS7003;65692;51.378;19.824;2023-07-13T02:05:47;19.25;16.50;14.25
55304;PMS7003;65692;51.378;19.824;2023-07-13T02:08:13;22.25;18.75;15.00
55304;PMS7003;65692;51.378;19.824;2023-07-13T02:10:39;19.00;19.00;15.50
55304;PMS7003;65692;51.378;19.824;2023-07-13T02:13:06;13.50;13.50;11.25
55304;PMS7003;65692;51.378;19.824;2023-07-13T02:15:33;19.50;17.25;13.50
55304;PMS7003;65692;51.378;19.824;2023-07-13T02:17:59;21.50;18.00;13.25
55304;PMS7003;65692;51.378;19.824;2023-07-13T02:20:26;24.25;19.75;15.00
55304;PMS7003;65692;51.378;19.824;2023-07-13T02:22:52;17.00;17.00;13.75
55304;PMS7003;65692;51.378;19.824;2023-07-13T02:25:19;21.25;16.75;13.75
55304;PMS7003;65692;51.378;19.824;2023-07-13T02:27:46;20.50;17.00;15.25
55304;PMS7003;65692;51.378;19.824;2023-07-13T02:30:13;19.75;18.00;14.75
55304;PMS7003;65692;51.378;19.824;2023-07-13T02:32:40;21.75;20.25;16.25
55304;PMS7003;65692;51.378;19.824;2023-07-13T02:35:06;17.00;17.00;13.50
55304;PMS7003;65692;51.378;19.824;2023-07-13T02:37:33;17.25;16.50;13.75
55304;PMS7003;65692;51.378;19.824;2023-07-13T02:39:59;21.50;20.00;16.25
55304;PMS7003;65692;51.378;19.824;2023-07-13T02:42:26;19.25;19.00;16.25
55304;PMS7003;65692;51.378;19.824;2023-07-13T02:44:52;18.25;14.75;12.00
55304;PMS7003;65692;51.378;19.824;2023-07-13T02:47:19;21.50;20.00;16.00
55304;PMS7003;65692;51.378;19.824;2023-07-13T02:49:45;14.00;14.00;11.00
55304;PMS7003;65692;51.378;19.824;2023-07-13T02:52:12;16.50;16.50;12.25
55304;PMS7003;65692;51.378;19.824;2023-07-13T02:54:38;15.50;15.50;11.25
55304;PMS7003;65692;51.378;19.824;2023-07-13T02:57:05;20.25;18.00;14.50
55304;PMS7003;65692;51.378;19.824;2023-07-13T02:59:31;19.00;17.25;14.25
55304;PMS7003;65692;51.378;19.824;2023-07-13T03:01:58;18.00;17.25;12.00
55304;PMS7003;65692;51.378;19.824;2023-07-13T03:04:24;17.00;16.25;12.00
55304;PMS7003;65692;51.378;19.824;2023-07-13T03:06:51;20.25;16.75;12.50
55304;PMS7003;65692;51.378;19.824;2023-07-13T03:09:17;18.50;18.25;15.50
55304;PMS7003;65692;51.378;19.824;2023-07-13T03:11:44;18.00;17.00;13.50
55304;PMS7003;65692;51.378;19.824;2023-07-13T03:14:10;15.50;14.50;12.00
55304;PMS7003;65692;51.378;19.824;2023-07-13T03:16:37;20.25;18.75;14.00
55304;PMS7003;65692;51.378;19.824;2023-07-13T03:19:03;14.50;14.50;12.00
55304;PMS7003;65692;51.378;19.824;2023-07-13T03:21:30;27.25;19.75;14.25
55304;PMS7003;65692;51.378;19.824;2023-07-13T03:23:56;23.00;19.75;14.75
55304;PMS7003;65692;51.378;19.824;2023-07-13T03:26:23;17.00;13.75;12.00
55304;PMS7003;65692;51.378;19.824;2023-07-13T03:28:49;18.00;15.25;11.00
55304;PMS7003;65692;51.378;19.824;2023-07-13T03:31:17;18.75;17.75;13.50
55304;PMS7003;65692;51.378;19.824;2023-07-13T03:33:44;18.25;16.25;12.25
55304;PMS7003;65692;51.378;19.824;2023-07-13T03:36:15;16.25;16.25;12.25
55304;PMS7003;65692;51.378;19.824;2023-07-13T03:38:46;18.00;17.75;14.25
55304;PMS7003;65692;51.378;19.824;2023-07-13T03:41:12;18.50;18.25;14.25
55304;PMS7003;65692;51.378;19.824;2023-07-13T03:43:39;17.50;16.00;13.00
55304;PMS7003;65692;51.378;19.824;2023-07-13T03:46:05;24.25;19.00;14.50
55304;PMS7003;65692;51.378;19.824;2023-07-13T03:48:32;22.50;20.25;15.00
55304;PMS7003;65692;51.378;19.824;2023-07-13T03:50:58;19.25;17.00;14.75
55304;PMS7003;65692;51.378;19.824;2023-07-13T03:53:24;25.75;21.00;15.25
55304;PMS7003;65692;51.378;19.824;2023-07-13T03:55:51;19.00;17.25;14.50
55304;PMS7003;65692;51.378;19.824;2023-07-13T03:58:25;18.75;16.25;14.25
55304;PMS7003;65692;51.378;19.824;2023-07-13T04:00:53;21.75;20.25;15.50
55304;PMS7003;65692;51.378;19.824;2023-07-13T04:03:20;16.25;16.00;14.25
55304;PMS7003;65692;51.378;19.824;2023-07-13T04:05:46;22.50;18.50;13.75
55304;PMS7003;65692;51.378;19.824;2023-07-13T04:08:13;21.75;20.00;16.00
55304;PMS7003;65692;51.378;19.824;2023-07-13T04:10:40;22.50;19.25;14.75
55304;PMS7003;65692;51.378;19.824;2023-07-13T04:13:06;27.25;22.25;18.25
55304;PMS7003;65692;51.378;19.824;2023-07-13T04:15:33;19.75;19.50;15.25
55304;PMS7003;65692;51.378;19.824;2023-07-13T04:18:00;20.00;18.25;14.50
55304;PMS7003;65692;51.378;19.824;2023-07-13T04:20:26;26.75;23.50;16.50
55304;PMS7003;65692;51.378;19.824;2023-07-13T04:22:52;22.25;21.50;17.50
55304;PMS7003;65692;51.378;19.824;2023-07-13T04:25:20;21.25;20.50;17.00
55304;PMS7003;65692;51.378;19.824;2023-07-13T04:27:47;22.00;19.75;16.00
55304;PMS7003;65692;51.378;19.824;2023-07-13T04:30:13;23.50;22.50;17.25
55304;PMS7003;65692;51.378;19.824;2023-07-13T04:32:40;22.25;20.50;17.50
55304;PMS7003;65692;51.378;19.824;2023-07-13T04:35:07;21.75;20.75;16.25
55304;PMS7003;65692;51.378;19.824;2023-07-13T04:37:33;23.75;22.50;16.25
55304;PMS7003;65692;51.378;19.824;2023-07-13T04:40:02;23.25;20.00;15.00
55304;PMS7003;65692;51.378;19.824;2023-07-13T04:42:29;22.75;21.25;16.00
55304;PMS7003;65692;51.378;19.824;2023-07-13T04:44:56;25.25;20.00;15.00
55304;PMS7003;65692;51.378;19.824;2023-07-13T04:47:22;20.50;19.50;16.25
55304;PMS7003;65692;51.378;19.824;2023-07-13T04:49:49;23.25;21.25;15.25
55304;PMS7003;65692;51.378;19.824;2023-07-13T04:52:15;30.25;27.75;20.50
55304;PMS7003;65692;51.378;19.824;2023-07-13T04:54:42;27.75;23.25;18.75
55304;PMS7003;65692;51.378;19.824;2023-07-13T04:57:08;23.50;23.50;19.75
55304;PMS7003;65692;51.378;19.824;2023-07-13T04:59:35;29.75;26.25;19.75
55304;PMS7003;65692;51.378;19.824;2023-07-13T05:02:01;21.25;20.75;16.00
55304;PMS7003;65692;51.378;19.824;2023-07-13T05:04:28;25.75;22.50;16.75
55304;PMS7003;65692;51.378;19.824;2023-07-13T05:06:54;22.75;18.75;16.00
55304;PMS7003;65692;51.378;19.824;2023-07-13T05:09:21;25.25;24.25;18.50
55304;PMS7003;65692;51.378;19.824;2023-07-13T05:11:47;36.25;26.50;19.00
55304;PMS7003;65692;51.378;19.824;2023-07-13T05:14:13;28.25;25.25;20.75
55304;PMS7003;65692;51.378;19.824;2023-07-13T05:16:42;39.50;32.25;23.50
55304;PMS7003;65692;51.378;19.824;2023-07-13T05:19:08;45.25;34.75;24.75
55304;PMS7003;65692;51.378;19.824;2023-07-13T05:21:35;41.67;31.33;24.67
55304;PMS7003;65692;51.378;19.824;2023-07-13T05:24:02;51.33;41.00;26.00
55304;PMS7003;65692;51.378;19.824;2023-07-13T05:26:48;39.75;34.75;24.00
55304;PMS7003;65692;51.378;19.824;2023-07-13T05:29:15;24.25;24.25;19.25
55304;PMS7003;65692;51.378;19.824;2023-07-13T05:31:44;19.75;16.00;11.00
55304;PMS7003;65692;51.378;19.824;2023-07-13T05:34:10;21.25;19.25;15.00
55304;PMS7003;65692;51.378;19.824;2023-07-13T05:36:37;23.50;22.50;16.75
55304;PMS7003;65692;51.378;19.824;2023-07-13T05:39:03;23.25;21.50;16.00
55304;PMS7003;65692;51.378;19.824;2023-07-13T05:41:30;25.50;24.75;17.75
55304;PMS7003;65692;51.378;19.824;2023-07-13T05:43:57;25.00;21.00;17.00
55304;PMS7003;65692;51.378;19.824;2023-07-13T05:46:23;23.50;21.50;15.00
55304;PMS7003;65692;51.378;19.824;2023-07-13T05:48:50;21.00;17.75;14.75
55304;PMS7003;65692;51.378;19.824;2023-07-13T05:51:17;22.75;19.25;15.75
55304;PMS7003;65692;51.378;19.824;2023-07-13T05:53:43;20.25;19.00;14.75
55304;PMS7003;65692;51.378;19.824;2023-07-13T05:56:10;24.00;21.00;16.00
55304;PMS7003;65692;51.378;19.824;2023-07-13T05:58:36;17.50;17.00;14.00
55304;PMS7003;65692;51.378;19.824;2023-07-13T06:01:08;20.25;19.25;15.50
55304;PMS7003;65692;51.378;19.824;2023-07-13T06:03:37;22.75;20.75;16.00
55304;PMS7003;65692;51.378;19.824;2023-07-13T06:06:07;19.00;16.25;12.50
55304;PMS7003;65692;51.378;19.824;2023-07-13T06:08:34;18.75;18.25;12.00
55304;PMS7003;65692;51.378;19.824;2023-07-13T06:11:04;16.75;16.00;13.25
55304;PMS7003;65692;51.378;19.824;2023-07-13T06:13:31;16.00;15.75;11.50
55304;PMS7003;65692;51.378;19.824;2023-07-13T06:15:57;18.50;17.25;12.50
55304;PMS7003;65692;51.378;19.824;2023-07-13T06:18:24;13.50;13.50;11.25
55304;PMS7003;65692;51.378;19.824;2023-07-13T06:20:50;15.00;12.25;10.75
55304;PMS7003;65692;51.378;19.824;2023-07-13T06:23:17;3.75;1.00;0.00
55304;PMS7003;65692;51.378;19.824;2023-07-13T06:25:43;10.00;10.00;8.50
55304;PMS7003;65692;51.378;19.824;2023-07-13T06:28:10;11.75;11.50;9.25
55304;PMS7003;65692;51.378;19.824;2023-07-13T06:30:38;10.75;10.75;8.50
55304;PMS7003;65692;51.378;19.824;2023-07-13T06:33:04;13.25;12.00;10.00
55304;PMS7003;65692;51.378;19.824;2023-07-13T06:35:31;7.50;7.25;5.00
55304;PMS7003;65692;51.378;19.824;2023-07-13T06:37:57;11.50;10.50;9.00
55304;PMS7003;65692;51.378;19.824;2023-07-13T06:40:24;13.00;13.00;11.00
55304;PMS7003;65692;51.378;19.824;2023-07-13T06:42:50;9.75;9.75;8.00
55304;PMS7003;65692;51.378;19.824;2023-07-13T06:45:16;9.25;9.25;7.75
55304;PMS7003;65692;51.378;19.824;2023-07-13T06:47:43;12.25;12.25;9.75
55304;PMS7003;65692;51.378;19.824;2023-07-13T06:50:10;11.75;11.00;8.75
55304;PMS7003;65692;51.378;19.824;2023-07-13T06:52:36;11.00;10.00;8.00
55304;PMS7003;65692;51.378;19.824;2023-07-13T06:55:03;10.25;8.75;7.00
55304;PMS7003;65692;51.378;19.824;2023-07-13T06:57:29;9.00;8.75;7.50
55304;PMS7003;65692;51.378;19.824;2023-07-13T06:59:56;12.25;12.25;9.25
55304;PMS7003;65692;51.378;19.824;2023-07-13T07:02:23;9.00;9.00;7.50
55304;PMS7003;65692;51.378;19.824;2023-07-13T07:04:50;11.00;9.75;9.00
55304;PMS7003;65692;51.378;19.824;2023-07-13T07:07:16;10.25;8.75;7.75
55304;PMS7003;65692;51.378;19.824;2023-07-13T07:09:43;9.75;9.75;8.00
55304;PMS7003;65692;51.378;19.824;2023-07-13T07:12:09;10.50;9.75;7.75
55304;PMS7003;65692;51.378;19.824;2023-07-13T07:14:39;9.50;9.00;8.00
55304;PMS7003;65692;51.378;19.824;2023-07-13T07:17:05;10.75;10.50;9.00
55304;PMS7003;65692;51.378;19.824;2023-07-13T07:19:32;7.75;7.75;7.25
55304;PMS7003;65692;51.378;19.824;2023-07-13T07:21:59;11.25;11.00;7.75
55304;PMS7003;65692;51.378;19.824;2023-07-13T07:24:25;10.00;10.00;6.75
55304;PMS7003;65692;51.378;19.824;2023-07-13T07:26:52;8.50;7.75;6.75
55304;PMS7003;65692;51.378;19.824;2023-07-13T07:29:21;9.00;8.00;7.00
55304;PMS7003;65692;51.378;19.824;2023-07-13T07:31:51;6.50;6.25;6.00
55304;PMS7003;65692;51.378;19.824;2023-07-13T07:34:30;9.75;9.25;6.75
55304;PMS7003;65692;51.378;19.824;2023-07-13T07:37:00;6.75;5.75;5.00
55304;PMS7003;65692;51.378;19.824;2023-07-13T07:39:30;7.00;7.00;6.25
55304;PMS7003;65692;51.378;19.824;2023-07-13T07:41:56;6.75;6.75;5.75
55304;PMS7003;65692;51.378;19.824;2023-07-13T07:44:23;8.00;8.00;6.75
55304;PMS7003;65692;51.378;19.824;2023-07-13T07:46:50;8.25;6.75;5.75
55304;PMS7003;65692;51.378;19.824;2023-07-13T07:49:16;7.50;7.50;6.00
55304;PMS7003;65692;51.378;19.824;2023-07-13T07:51:43;9.00;9.00;7.75
55304;PMS7003;65692;51.378;19.824;2023-07-13T07:54:09;9.50;9.00;7.75
55304;PMS7003;65692;51.378;19.824;2023-07-13T07:56:40;10.00;9.25;8.25
55304;PMS7003;65692;51.378;19.824;2023-07-13T07:59:09;8.50;8.50;7.25
55304;PMS7003;65692;51.378;19.824;2023-07-13T08:01:39;9.50;9.50;8.50
55304;PMS7003;65692;51.378;19.824;2023-07-13T08:04:08;10.25;9.00;6.75
55304;PMS7003;65692;51.378;19.824;2023-07-13T08:06:55;8.25;8.25;6.00
55304;PMS7003;65692;51.378;19.824;2023-07-13T08:09:24;10.00;8.75;7.25
55304;PMS7003;65692;51.378;19.824;2023-07-13T08:11:51;9.50;9.25;6.50
55304;PMS7003;65692;51.378;19.824;2023-07-13T08:14:21;8.75;5.75;5.25
55304;PMS7003;65692;51.378;19.824;2023-07-13T08:16:48;8.50;8.50;6.00
55304;PMS7003;65692;51.378;19.824;2023-07-13T08:19:14;6.25;6.25;6.00
55304;PMS7003;65692;51.378;19.824;2023-07-13T08:21:40;10.00;8.50;6.00
55304;PMS7003;65692;51.378;19.824;2023-07-13T08:24:09;8.00;8.00;6.25
55304;PMS7003;65692;51.378;19.824;2023-07-13T08:26:35;8.50;8.50;7.75
55304;PMS7003;65692;51.378;19.824;2023-07-13T08:29:02;8.75;8.25;6.25
55304;PMS7003;65692;51.378;19.824;2023-07-13T08:31:29;10.25;9.50;7.25
55304;PMS7003;65692;51.378;19.824;2023-07-13T08:33:55;9.50;9.50;8.00
55304;PMS7003;65692;51.378;19.824;2023-07-13T08:36:22;12.00;10.00;8.00
55304;PMS7003;65692;51.378;19.824;2023-07-13T08:38:48;8.00;8.00;6.75
55304;PMS7003;65692;51.378;19.824;2023-07-13T08:41:16;9.00;7.25;6.25
55304;PMS7003;65692;51.378;19.824;2023-07-13T08:43:45;5.75;5.75;5.00
55304;PMS7003;65692;51.378;19.824;2023-07-13T08:49:02;9.00;8.50;7.50
55304;PMS7003;65692;51.378;19.824;2023-07-13T08:54:16;8.75;7.75;6.25
55304;PMS7003;65692;51.378;19.824;2023-07-13T08:56:45;9.75;8.75;7.75
55304;PMS7003;65692;51.378;19.824;2023-07-13T08:59:14;10.75;10.75;8.50
55304;PMS7003;65692;51.378;19.824;2023-07-13T09:05:01;11.00;9.75;8.50
55304;PMS7003;65692;51.378;19.824;2023-07-13T09:14:52;10.25;8.75;7.25
55304;PMS7003;65692;51.378;19.824;2023-07-13T09:17:29;10.75;10.00;8.50
55304;PMS7003;65692;51.378;19.824;2023-07-13T09:20:00;11.00;11.00;9.25
55304;PMS7003;65692;51.378;19.824;2023-07-13T09:22:30;7.50;7.50;6.50
55304;PMS7003;65692;51.378;19.824;2023-07-13T09:27:36;8.50;8.50;7.00
55304;PMS7003;65692;51.378;19.824;2023-07-13T09:32:42;8.75;8.75;6.75
55304;PMS7003;65692;51.378;19.824;2023-07-13T09:35:11;8.00;8.00;7.75
55304;PMS7003;65692;51.378;19.824;2023-07-13T09:37:38;8.50;8.50;7.00
55304;PMS7003;65692;51.378;19.824;2023-07-13T09:40:10;7.50;7.50;6.50
55304;PMS7003;65692;51.378;19.824;2023-07-13T09:42:38;8.00;8.00;6.25
55304;PMS7003;65692;51.378;19.824;2023-07-13T09:45:05;10.00;10.00;7.50
55304;PMS7003;65692;51.378;19.824;2023-07-13T09:47:37;7.00;6.25;5.75
55304;PMS7003;65692;51.378;19.824;2023-07-13T09:50:09;7.00;7.00;5.00
55304;PMS7003;65692;51.378;19.824;2023-07-13T09:52:43;6.00;6.00;5.25
55304;PMS7003;65692;51.378;19.824;2023-07-13T09:55:30;7.25;5.25;4.25
55304;PMS7003;65692;51.378;19.824;2023-07-13T09:57:57;10.25;7.00;6.00
55304;PMS7003;65692;51.378;19.824;2023-07-13T10:00:28;8.00;6.00;5.00
55304;PMS7003;65692;51.378;19.824;2023-07-13T10:03:02;7.00;5.00;4.50
55304;PMS7003;65692;51.378;19.824;2023-07-13T10:05:40;6.50;5.00;4.50
55304;PMS7003;65692;51.378;19.824;2023-07-13T10:08:26;4.00;3.25;3.00
55304;PMS7003;65692;51.378;19.824;2023-07-13T10:11:00;3.25;3.25;3.00
55304;PMS7003;65692;51.378;19.824;2023-07-13T10:13:31;4.25;3.00;2.50
55304;PMS7003;65692;51.378;19.824;2023-07-13T10:15:58;3.75;3.25;3.00
55304;PMS7003;65692;51.378;19.824;2023-07-13T10:18:25;2.75;2.75;2.25
55304;PMS7003;65692;51.378;19.824;2023-07-13T10:21:04;5.00;2.75;2.25
55304;PMS7003;65692;51.378;19.824;2023-07-13T10:23:57;1.00;1.00;1.00
55304;PMS7003;65692;51.378;19.824;2023-07-13T10:26:32;2.50;2.50;2.50
55304;PMS7003;65692;51.378;19.824;2023-07-13T10:29:02;1.25;1.25;1.25
55304;PMS7003;65692;51.378;19.824;2023-07-13T10:31:31;2.50;2.00;2.00
55304;PMS7003;65692;51.378;19.824;2023-07-13T10:33:58;6.00;3.50;2.50
55304;PMS7003;65692;51.378;19.824;2023-07-13T10:36:34;6.50;4.00;3.00
55304;PMS7003;65692;51.378;19.824;2023-07-13T10:39:05;32.25;27.50;18.25
55304;PMS7003;65692;51.378;19.824;2023-07-13T10:41:37;13.50;12.00;7.50
55304;PMS7003;65692;51.378;19.824;2023-07-13T10:44:06;3.25;3.25;2.50
55304;PMS7003;65692;51.378;19.824;2023-07-13T10:46:38;2.50;2.50;2.00
55304;PMS7003;65692;51.378;19.824;2023-07-13T10:49:05;3.00;1.75;1.75
55304;PMS7003;65692;51.378;19.824;2023-07-13T10:51:33;2.50;2.50;2.00
55304;PMS7003;65692;51.378;19.824;2023-07-13T10:54:11;3.50;3.00;3.00
55304;PMS7003;65692;51.378;19.824;2023-07-13T10:56:45;3.00;1.75;1.25
55304;PMS7003;65692;51.378;19.824;2023-07-13T10:59:25;1.75;1.75;1.75
55304;PMS7003;65692;51.378;19.824;2023-07-13T11:01:55;1.25;1.25;1.00
55304;PMS7003;65692;51.378;19.824;2023-07-13T11:04:23;3.25;2.50;2.25
55304;PMS7003;65692;51.378;19.824;2023-07-13T11:06:52;4.00;4.00;3.00
55304;PMS7003;65692;51.378;19.824;2023-07-13T11:12:06;3.25;3.25;3.00
55304;PMS7003;65692;51.378;19.824;2023-07-13T11:14:42;4.50;3.00;3.00
55304;PMS7003;65692;51.378;19.824;2023-07-13T11:19:54;4.75;2.75;2.25
55304;PMS7003;65692;51.378;19.824;2023-07-13T11:22:51;4.00;2.75;2.75
55304;PMS7003;65692;51.378;19.824;2023-07-13T11:28:27;3.00;3.00;2.75
55304;PMS7003;65692;51.378;19.824;2023-07-13T11:30:59;6.50;5.00;4.00
55304;PMS7003;65692;51.378;19.824;2023-07-13T11:38:27;4.50;4.00;3.50
55304;PMS7003;65692;51.378;19.824;2023-07-13T11:40:54;2.25;2.00;2.00
55304;PMS7003;65692;51.378;19.824;2023-07-13T11:43:22;2.75;2.75;1.75
55304;PMS7003;65692;51.378;19.824;2023-07-13T11:45:52;2.75;2.75;2.50
55304;PMS7003;65692;51.378;19.824;2023-07-13T11:48:19;4.75;3.25;3.00
55304;PMS7003;65692;51.378;19.824;2023-07-13T11:51:05;4.00;4.00;3.75
55304;PMS7003;65692;51.378;19.824;2023-07-13T11:53:36;10.25;7.25;6.25
55304;PMS7003;65692;51.378;19.824;2023-07-13T11:56:04;5.75;5.75;4.75
55304;PMS7003;65692;51.378;19.824;2023-07-13T11:58:31;5.00;3.25;3.25
55304;PMS7003;65692;51.378;19.824;2023-07-13T12:00:59;8.25;6.25;5.25
55304;PMS7003;65692;51.378;19.824;2023-07-13T12:03:28;8.75;6.00;4.75
55304;PMS7003;65692;51.378;19.824;2023-07-13T12:05:59;6.75;5.75;4.00
55304;PMS7003;65692;51.378;19.824;2023-07-13T12:08:28;7.00;5.50;5.00
55304;PMS7003;65692;51.378;19.824;2023-07-13T12:10:59;4.50;4.50;3.75
55304;PMS7003;65692;51.378;19.824;2023-07-13T12:13:26;3.00;3.00;3.00
55304;PMS7003;65692;51.378;19.824;2023-07-13T12:15:53;3.25;3.25;3.00
55304;PMS7003;65692;51.378;19.824;2023-07-13T12:18:22;3.00;3.00;3.00
55304;PMS7003;65692;51.378;19.824;2023-07-13T12:20:50;3.50;3.50;3.50
55304;PMS7003;65692;51.378;19.824;2023-07-13T12:23:29;5.75;4.50;3.75
55304;PMS7003;65692;51.378;19.824;2023-07-13T12:25:57;4.00;4.00;3.25
55304;PMS7003;65692;51.378;19.824;2023-07-13T12:28:32;4.00;4.00;3.00
55304;PMS7003;65692;51.378;19.824;2023-07-13T12:31:01;3.50;3.50;3.00
55304;PMS7003;65692;51.378;19.824;2023-07-13T12:33:29;3.75;3.75;2.00
55304;PMS7003;65692;51.378;19.824;2023-07-13T12:35:58;6.00;4.00;4.00
55304;PMS7003;65692;51.378;19.824;2023-07-13T12:38:26;5.00;4.50;4.00
55304;PMS7003;65692;51.378;19.824;2023-07-13T12:40:52;3.75;3.75;3.75
55304;PMS7003;65692;51.378;19.824;2023-07-13T12:43:20;5.25;4.00;3.00
55304;PMS7003;65692;51.378;19.824;2023-07-13T12:48:23;6.00;4.00;3.75
55304;PMS7003;65692;51.378;19.824;2023-07-13T12:51:08;5.00;3.25;3.00
55304;PMS7003;65692;51.378;19.824;2023-07-13T12:53:38;5.00;5.00;4.00
55304;PMS7003;65692;51.378;19.824;2023-07-13T12:56:06;4.00;4.00;3.00
55304;PMS7003;65692;51.378;19.824;2023-07-13T12:58:36;5.00;5.00;4.00
55304;PMS7003;65692;51.378;19.824;2023-07-13T13:01:03;5.50;3.75;3.75
55304;PMS7003;65692;51.378;19.824;2023-07-13T13:03:35;6.00;4.50;3.25
55304;PMS7003;65692;51.378;19.824;2023-07-13T13:06:04;5.25;4.25;3.00
55304;PMS7003;65692;51.378;19.824;2023-07-13T13:08:31;3.00;3.00;3.00
55304;PMS7003;65692;51.378;19.824;2023-07-13T13:10:58;5.50;4.25;3.75
55304;PMS7003;65692;51.378;19.824;2023-07-13T13:13:25;5.50;4.50;4.25
55304;PMS7003;65692;51.378;19.824;2023-07-13T13:15:51;23.00;18.25;12.50
55304;PMS7003;65692;51.378;19.824;2023-07-13T13:18:19;13.75;13.25;10.25
55304;PMS7003;65692;51.378;19.824;2023-07-13T13:20:50;7.75;7.00;5.50
55304;PMS7003;65692;51.378;19.824;2023-07-13T13:23:19;9.50;8.00;7.00
55304;PMS7003;65692;51.378;19.824;2023-07-13T13:25:46;6.00;4.75;4.00
55304;PMS7003;65692;51.378;19.824;2023-07-13T13:28:15;6.25;6.00;4.75
55304;PMS7003;65692;51.378;19.824;2023-07-13T13:30:43;8.00;6.75;5.00
55304;PMS7003;65692;51.378;19.824;2023-07-13T13:33:10;5.25;5.00;4.50
55304;PMS7003;65692;51.378;19.824;2023-07-13T13:35:37;5.50;5.50;5.00
55304;PMS7003;65692;51.378;19.824;2023-07-13T13:38:11;6.00;6.00;6.00
55304;PMS7003;65692;51.378;19.824;2023-07-13T13:40:38;7.25;6.00;5.00
55304;PMS7003;65692;51.378;19.824;2023-07-13T13:43:13;8.75;7.75;6.00
55304;PMS7003;65692;51.378;19.824;2023-07-13T13:45:41;6.25;5.75;4.50
55304;PMS7003;65692;51.378;19.824;2023-07-13T13:48:13;7.00;6.50;5.00
55304;PMS7003;65692;51.378;19.824;2023-07-13T13:50:40;8.25;8.00;7.00
55304;PMS7003;65692;51.378;19.824;2023-07-13T13:53:09;6.50;6.25;6.00
55304;PMS7003;65692;51.378;19.824;2023-07-13T13:55:36;10.75;8.25;7.25
55304;PMS7003;65692;51.378;19.824;2023-07-13T13:58:02;7.75;7.00;6.00
55304;PMS7003;65692;51.378;19.824;2023-07-13T14:00:29;8.00;6.50;6.00
55304;PMS7003;65692;51.378;19.824;2023-07-13T14:02:56;10.00;6.50;6.25
55304;PMS7003;65692;51.378;19.824;2023-07-13T14:05:25;8.25;7.00;6.25
55304;PMS7003;65692;51.378;19.824;2023-07-13T14:07:56;8.00;6.75;6.00
55304;PMS7003;65692;51.378;19.824;2023-07-13T14:10:23;7.50;7.50;6.75
55304;PMS7003;65692;51.378;19.824;2023-07-13T14:12:53;11.25;10.25;8.00
55304;PMS7003;65692;51.378;19.824;2023-07-13T14:15:24;8.00;6.75;6.25
55304;PMS7003;65692;51.378;19.824;2023-07-13T14:17:51;9.50;8.25;7.50
55304;PMS7003;65692;51.378;19.824;2023-07-13T14:20:19;10.00;8.75;7.75
55304;PMS7003;65692;51.378;19.824;2023-07-13T14:22:46;11.50;11.50;10.00
55304;PMS7003;65692;51.378;19.824;2023-07-13T14:25:13;11.75;10.25;8.25
55304;PMS7003;65692;51.378;19.824;2023-07-13T14:27:40;13.25;11.50;8.50
55304;PMS7003;65692;51.378;19.824;2023-07-13T14:30:14;11.25;9.25;8.25
55304;PMS7003;65692;51.378;19.824;2023-07-13T14:32:41;12.50;9.50;7.75
55304;PMS7003;65692;51.378;19.824;2023-07-13T14:35:11;10.25;7.50;6.75